sensor_id;sensor_type;location;lat;lon;timestamp;P1;durP1;ratioP1;P2;durP2;ratioP2
24743;SDS011;12844;52.110;5.548;2023-05-17T00:00:30;3.60;;;1.30;;
24743;SDS011;12844;52.110;5.548;2023-05-17T00:02:56;4.60;;;1.30;;
24743;SDS011;12844;52.110;5.548;2023-05-17T00:05:21;3.53;;;1.35;;
24743;SDS011;12844;52.110;5.548;2023-05-17T00:07:47;2.25;;;1.23;;
24743;SDS011;12844;52.110;5.548;2023-05-17T00:10:13;2.70;;;1.27;;
24743;SDS011;12844;52.110;5.548;2023-05-17T00:12:39;2.45;;;1.00;;
24743;SDS011;12844;52.110;5.548;2023-05-17T00:15:04;3.35;;;1.63;;
24743;SDS011;12844;52.110;5.548;2023-05-17T00:17:30;2.20;;;1.27;;
24743;SDS011;12844;52.110;5.548;2023-05-17T00:19:56;2.95;;;1.30;;
24743;SDS011;12844;52.110;5.548;2023-05-17T00:22:21;1.77;;;1.13;;
24743;SDS011;12844;52.110;5.548;2023-05-17T00:24:47;3.25;;;1.20;;
24743;SDS011;12844;52.110;5.548;2023-05-17T00:27:12;3.47;;;1.13;;
24743;SDS011;12844;52.110;5.548;2023-05-17T00:29:38;3.67;;;1.30;;
24743;SDS011;12844;52.110;5.548;2023-05-17T00:32:03;2.55;;;1.00;;
24743;SDS011;12844;52.110;5.548;2023-05-17T00:34:29;3.45;;;1.63;;
24743;SDS011;12844;52.110;5.548;2023-05-17T00:36:55;4.40;;;1.40;;
24743;SDS011;12844;52.110;5.548;2023-05-17T00:39:20;4.88;;;1.40;;
24743;SDS011;12844;52.110;5.548;2023-05-17T00:41:46;1.88;;;1.00;;
24743;SDS011;12844;52.110;5.548;2023-05-17T00:44:11;3.03;;;1.15;;
24743;SDS011;12844;52.110;5.548;2023-05-17T00:46:37;4.20;;;1.52;;
24743;SDS011;12844;52.110;5.548;2023-05-17T00:49:02;2.63;;;1.27;;
24743;SDS011;12844;52.110;5.548;2023-05-17T00:51:28;2.78;;;1.48;;
24743;SDS011;12844;52.110;5.548;2023-05-17T00:53:53;1.92;;;1.10;;
24743;SDS011;12844;52.110;5.548;2023-05-17T00:56:19;4.40;;;1.52;;
24743;SDS011;12844;52.110;5.548;2023-05-17T00:58:45;1.98;;;1.10;;
24743;SDS011;12844;52.110;5.548;2023-05-17T01:01:10;4.60;;;1.48;;
24743;SDS011;12844;52.110;5.548;2023-05-17T01:03:36;3.00;;;1.48;;
24743;SDS011;12844;52.110;5.548;2023-05-17T01:06:02;2.92;;;1.30;;
24743;SDS011;12844;52.110;5.548;2023-05-17T01:08:29;2.97;;;1.52;;
24743;SDS011;12844;52.110;5.548;2023-05-17T01:17:00;3.38;;;1.42;;
24743;SDS011;12844;52.110;5.548;2023-05-17T01:19:39;2.17;;;1.30;;
24743;SDS011;12844;52.110;5.548;2023-05-17T01:22:26;3.25;;;1.33;;
24743;SDS011;12844;52.110;5.548;2023-05-17T01:25:28;2.08;;;1.17;;
24743;SDS011;12844;52.110;5.548;2023-05-17T01:28:06;2.92;;;1.33;;
24743;SDS011;12844;52.110;5.548;2023-05-17T01:30:33;3.40;;;1.30;;
24743;SDS011;12844;52.110;5.548;2023-05-17T01:33:01;2.45;;;1.25;;
24743;SDS011;12844;52.110;5.548;2023-05-17T01:35:28;3.17;;;1.30;;
24743;SDS011;12844;52.110;5.548;2023-05-17T01:37:53;2.97;;;1.33;;
24743;SDS011;12844;52.110;5.548;2023-05-17T01:40:19;3.28;;;1.40;;
24743;SDS011;12844;52.110;5.548;2023-05-17T01:42:46;1.80;;;1.20;;
24743;SDS011;12844;52.110;5.548;2023-05-17T01:45:18;3.80;;;1.77;;
24743;SDS011;12844;52.110;5.548;2023-05-17T01:50:35;2.08;;;1.13;;
24743;SDS011;12844;52.110;5.548;2023-05-17T01:53:10;2.85;;;1.60;;
24743;SDS011;12844;52.110;5.548;2023-05-17T01:55:53;2.55;;;1.42;;
24743;SDS011;12844;52.110;5.548;2023-05-17T01:58:24;2.72;;;1.30;;
24743;SDS011;12844;52.110;5.548;2023-05-17T02:00:51;2.67;;;1.30;;
24743;SDS011;12844;52.110;5.548;2023-05-17T02:03:20;2.90;;;1.67;;
24743;SDS011;12844;52.110;5.548;2023-05-17T02:05:46;2.42;;;1.30;;
24743;SDS011;12844;52.110;5.548;2023-05-17T02:08:12;2.63;;;1.67;;
24743;SDS011;12844;52.110;5.548;2023-05-17T02:10:38;2.75;;;1.40;;
24743;SDS011;12844;52.110;5.548;2023-05-17T02:13:04;2.65;;;1.60;;
24743;SDS011;12844;52.110;5.548;2023-05-17T02:15:29;2.47;;;1.60;;
24743;SDS011;12844;52.110;5.548;2023-05-17T02:17:56;2.50;;;1.38;;
24743;SDS011;12844;52.110;5.548;2023-05-17T02:20:21;3.08;;;1.52;;
24743;SDS011;12844;52.110;5.548;2023-05-17T02:22:47;3.03;;;1.55;;
24743;SDS011;12844;52.110;5.548;2023-05-17T02:25:12;3.05;;;1.48;;
24743;SDS011;12844;52.110;5.548;2023-05-17T02:27:38;2.47;;;1.42;;
24743;SDS011;12844;52.110;5.548;2023-05-17T02:30:04;3.38;;;1.70;;
24743;SDS011;12844;52.110;5.548;2023-05-17T02:32:30;3.15;;;1.60;;
24743;SDS011;12844;52.110;5.548;2023-05-17T02:34:56;2.90;;;1.23;;
24743;SDS011;12844;52.110;5.548;2023-05-17T02:37:22;2.33;;;1.48;;
24743;SDS011;12844;52.110;5.548;2023-05-17T02:39:48;2.83;;;1.48;;
24743;SDS011;12844;52.110;5.548;2023-05-17T02:42:13;3.80;;;1.50;;
24743;SDS011;12844;52.110;5.548;2023-05-17T02:44:39;3.63;;;1.42;;
24743;SDS011;12844;52.110;5.548;2023-05-17T02:47:05;2.63;;;1.67;;
24743;SDS011;12844;52.110;5.548;2023-05-17T02:49:30;2.75;;;1.30;;
24743;SDS011;12844;52.110;5.548;2023-05-17T02:51:56;2.40;;;1.50;;
24743;SDS011;12844;52.110;5.548;2023-05-17T02:54:21;4.65;;;1.80;;
24743;SDS011;12844;52.110;5.548;2023-05-17T02:56:47;2.03;;;1.30;;
24743;SDS011;12844;52.110;5.548;2023-05-17T02:59:13;2.53;;;1.38;;
24743;SDS011;12844;52.110;5.548;2023-05-17T03:01:38;2.33;;;1.38;;
24743;SDS011;12844;52.110;5.548;2023-05-17T03:04:04;2.95;;;1.60;;
24743;SDS011;12844;52.110;5.548;2023-05-17T03:06:30;2.25;;;1.50;;
24743;SDS011;12844;52.110;5.548;2023-05-17T03:08:55;2.45;;;1.48;;
24743;SDS011;12844;52.110;5.548;2023-05-17T03:11:21;2.92;;;1.48;;
24743;SDS011;12844;52.110;5.548;2023-05-17T03:13:46;3.00;;;1.40;;
24743;SDS011;12844;52.110;5.548;2023-05-17T03:16:15;2.58;;;1.27;;
24743;SDS011;12844;52.110;5.548;2023-05-17T03:18:41;3.25;;;1.55;;
24743;SDS011;12844;52.110;5.548;2023-05-17T03:21:07;2.72;;;1.50;;
24743;SDS011;12844;52.110;5.548;2023-05-17T03:23:32;3.13;;;1.55;;
24743;SDS011;12844;52.110;5.548;2023-05-17T03:25:58;3.42;;;1.52;;
24743;SDS011;12844;52.110;5.548;2023-05-17T03:28:23;2.55;;;1.67;;
24743;SDS011;12844;52.110;5.548;2023-05-17T03:30:49;2.90;;;1.67;;
24743;SDS011;12844;52.110;5.548;2023-05-17T03:33:15;3.00;;;1.58;;
24743;SDS011;12844;52.110;5.548;2023-05-17T03:35:41;1.90;;;1.30;;
24743;SDS011;12844;52.110;5.548;2023-05-17T03:38:06;3.15;;;1.58;;
24743;SDS011;12844;52.110;5.548;2023-05-17T03:40:32;3.33;;;1.38;;
24743;SDS011;12844;52.110;5.548;2023-05-17T03:42:57;2.20;;;1.40;;
24743;SDS011;12844;52.110;5.548;2023-05-17T03:45:23;3.50;;;1.70;;
24743;SDS011;12844;52.110;5.548;2023-05-17T03:47:48;3.30;;;1.63;;
24743;SDS011;12844;52.110;5.548;2023-05-17T03:50:14;2.42;;;1.30;;
24743;SDS011;12844;52.110;5.548;2023-05-17T03:52:39;2.70;;;1.45;;
24743;SDS011;12844;52.110;5.548;2023-05-17T03:55:06;2.10;;;1.58;;
24743;SDS011;12844;52.110;5.548;2023-05-17T03:57:32;2.03;;;1.35;;
24743;SDS011;12844;52.110;5.548;2023-05-17T03:59:57;2.70;;;1.67;;
24743;SDS011;12844;52.110;5.548;2023-05-17T04:02:23;3.25;;;1.58;;
24743;SDS011;12844;52.110;5.548;2023-05-17T04:04:49;2.72;;;1.70;;
24743;SDS011;12844;52.110;5.548;2023-05-17T04:07:16;2.53;;;1.45;;
24743;SDS011;12844;52.110;5.548;2023-05-17T04:09:41;2.60;;;1.60;;
24743;SDS011;12844;52.110;5.548;2023-05-17T04:12:07;4.00;;;2.00;;
24743;SDS011;12844;52.110;5.548;2023-05-17T04:14:34;2.22;;;1.63;;
24743;SDS011;12844;52.110;5.548;2023-05-17T04:17:00;2.70;;;1.40;;
24743;SDS011;12844;52.110;5.548;2023-05-17T04:19:26;3.38;;;1.55;;
24743;SDS011;12844;52.110;5.548;2023-05-17T04:21:51;2.35;;;1.50;;
24743;SDS011;12844;52.110;5.548;2023-05-17T04:24:17;2.55;;;1.60;;
24743;SDS011;12844;52.110;5.548;2023-05-17T04:26:42;2.83;;;1.55;;
24743;SDS011;12844;52.110;5.548;2023-05-17T04:29:08;2.58;;;1.50;;
24743;SDS011;12844;52.110;5.548;2023-05-17T04:31:33;2.53;;;1.60;;
24743;SDS011;12844;52.110;5.548;2023-05-17T04:33:59;2.25;;;1.60;;
24743;SDS011;12844;52.110;5.548;2023-05-17T04:36:25;3.05;;;1.83;;
24743;SDS011;12844;52.110;5.548;2023-05-17T04:38:50;3.45;;;1.42;;
24743;SDS011;12844;52.110;5.548;2023-05-17T04:41:16;1.88;;;1.30;;
24743;SDS011;12844;52.110;5.548;2023-05-17T04:43:41;2.35;;;1.42;;
24743;SDS011;12844;52.110;5.548;2023-05-17T04:46:07;2.63;;;1.60;;
24743;SDS011;12844;52.110;5.548;2023-05-17T04:48:33;2.30;;;1.58;;
24743;SDS011;12844;52.110;5.548;2023-05-17T04:51:02;4.38;;;1.60;;
24743;SDS011;12844;52.110;5.548;2023-05-17T04:53:31;3.28;;;1.63;;
24743;SDS011;12844;52.110;5.548;2023-05-17T04:55:57;2.70;;;1.40;;
24743;SDS011;12844;52.110;5.548;2023-05-17T04:58:22;2.95;;;1.42;;
24743;SDS011;12844;52.110;5.548;2023-05-17T05:00:48;2.83;;;1.45;;
24743;SDS011;12844;52.110;5.548;2023-05-17T05:03:14;3.00;;;1.60;;
24743;SDS011;12844;52.110;5.548;2023-05-17T05:05:40;1.95;;;1.52;;
24743;SDS011;12844;52.110;5.548;2023-05-17T05:08:05;2.63;;;1.52;;
24743;SDS011;12844;52.110;5.548;2023-05-17T05:10:32;2.90;;;1.60;;
24743;SDS011;12844;52.110;5.548;2023-05-17T05:12:58;3.40;;;1.92;;
24743;SDS011;12844;52.110;5.548;2023-05-17T05:15:23;3.28;;;1.48;;
24743;SDS011;12844;52.110;5.548;2023-05-17T05:17:49;2.70;;;1.50;;
24743;SDS011;12844;52.110;5.548;2023-05-17T05:20:14;2.05;;;1.60;;
24743;SDS011;12844;52.110;5.548;2023-05-17T05:22:40;2.78;;;1.60;;
24743;SDS011;12844;52.110;5.548;2023-05-17T05:25:06;2.08;;;1.33;;
24743;SDS011;12844;52.110;5.548;2023-05-17T05:27:32;2.25;;;1.55;;
24743;SDS011;12844;52.110;5.548;2023-05-17T05:29:59;2.45;;;1.50;;
24743;SDS011;12844;52.110;5.548;2023-05-17T05:32:25;3.42;;;1.80;;
24743;SDS011;12844;52.110;5.548;2023-05-17T05:34:50;2.80;;;1.50;;
24743;SDS011;12844;52.110;5.548;2023-05-17T05:37:16;3.35;;;1.73;;
24743;SDS011;12844;52.110;5.548;2023-05-17T05:39:43;3.63;;;1.80;;
24743;SDS011;12844;52.110;5.548;2023-05-17T05:42:09;2.78;;;1.58;;
24743;SDS011;12844;52.110;5.548;2023-05-17T05:44:34;2.88;;;1.50;;
24743;SDS011;12844;52.110;5.548;2023-05-17T05:47:00;4.90;;;1.75;;
24743;SDS011;12844;52.110;5.548;2023-05-17T05:49:25;2.95;;;1.38;;
24743;SDS011;12844;52.110;5.548;2023-05-17T05:51:51;4.15;;;1.70;;
24743;SDS011;12844;52.110;5.548;2023-05-17T05:54:16;3.13;;;1.33;;
24743;SDS011;12844;52.110;5.548;2023-05-17T05:56:42;2.47;;;1.50;;
24743;SDS011;12844;52.110;5.548;2023-05-17T05:59:07;2.85;;;1.52;;
24743;SDS011;12844;52.110;5.548;2023-05-17T06:01:33;2.67;;;1.33;;
24743;SDS011;12844;52.110;5.548;2023-05-17T06:03:58;2.65;;;1.45;;
24743;SDS011;12844;52.110;5.548;2023-05-17T06:06:24;3.22;;;1.80;;
24743;SDS011;12844;52.110;5.548;2023-05-17T06:08:50;2.65;;;1.33;;
24743;SDS011;12844;52.110;5.548;2023-05-17T06:11:16;2.83;;;1.50;;
24743;SDS011;12844;52.110;5.548;2023-05-17T06:13:42;2.45;;;1.48;;
24743;SDS011;12844;52.110;5.548;2023-05-17T06:16:08;2.35;;;1.45;;
24743;SDS011;12844;52.110;5.548;2023-05-17T06:18:33;3.30;;;1.65;;
24743;SDS011;12844;52.110;5.548;2023-05-17T06:20:59;2.78;;;1.33;;
24743;SDS011;12844;52.110;5.548;2023-05-17T06:23:24;2.60;;;1.50;;
24743;SDS011;12844;52.110;5.548;2023-05-17T06:25:50;3.65;;;1.48;;
24743;SDS011;12844;52.110;5.548;2023-05-17T06:28:16;3.13;;;1.60;;
24743;SDS011;12844;52.110;5.548;2023-05-17T06:30:42;2.55;;;1.30;;
24743;SDS011;12844;52.110;5.548;2023-05-17T06:33:07;5.53;;;1.40;;
24743;SDS011;12844;52.110;5.548;2023-05-17T06:35:33;4.78;;;1.50;;
24743;SDS011;12844;52.110;5.548;2023-05-17T06:38:00;4.97;;;2.30;;
24743;SDS011;12844;52.110;5.548;2023-05-17T06:40:25;6.47;;;1.63;;
24743;SDS011;12844;52.110;5.548;2023-05-17T06:42:51;5.45;;;1.92;;
24743;SDS011;12844;52.110;5.548;2023-05-17T06:45:16;5.07;;;1.73;;
24743;SDS011;12844;52.110;5.548;2023-05-17T06:47:42;2.88;;;1.60;;
24743;SDS011;12844;52.110;5.548;2023-05-17T06:50:08;4.72;;;1.30;;
24743;SDS011;12844;52.110;5.548;2023-05-17T06:52:34;4.60;;;1.45;;
24743;SDS011;12844;52.110;5.548;2023-05-17T06:55:00;3.55;;;1.65;;
24743;SDS011;12844;52.110;5.548;2023-05-17T06:57:25;3.75;;;1.40;;
24743;SDS011;12844;52.110;5.548;2023-05-17T06:59:51;4.38;;;1.58;;
24743;SDS011;12844;52.110;5.548;2023-05-17T07:02:17;4.95;;;1.58;;
24743;SDS011;12844;52.110;5.548;2023-05-17T07:04:43;7.03;;;1.60;;
24743;SDS011;12844;52.110;5.548;2023-05-17T07:07:08;4.55;;;1.70;;
24743;SDS011;12844;52.110;5.548;2023-05-17T07:09:35;5.63;;;1.60;;
24743;SDS011;12844;52.110;5.548;2023-05-17T07:12:01;3.83;;;1.40;;
24743;SDS011;12844;52.110;5.548;2023-05-17T07:14:26;7.72;;;1.75;;
24743;SDS011;12844;52.110;5.548;2023-05-17T07:16:52;5.22;;;1.50;;
24743;SDS011;12844;52.110;5.548;2023-05-17T07:19:17;3.47;;;1.55;;
24743;SDS011;12844;52.110;5.548;2023-05-17T07:21:43;3.30;;;1.50;;
24743;SDS011;12844;52.110;5.548;2023-05-17T07:24:09;2.55;;;1.45;;
24743;SDS011;12844;52.110;5.548;2023-05-17T07:26:34;5.57;;;1.63;;
24743;SDS011;12844;52.110;5.548;2023-05-17T07:29:00;3.60;;;1.40;;
24743;SDS011;12844;52.110;5.548;2023-05-17T07:31:25;2.35;;;1.20;;
24743;SDS011;12844;52.110;5.548;2023-05-17T07:33:51;5.53;;;1.75;;
24743;SDS011;12844;52.110;5.548;2023-05-17T07:36:16;5.72;;;1.73;;
24743;SDS011;12844;52.110;5.548;2023-05-17T07:38:42;4.85;;;1.50;;
24743;SDS011;12844;52.110;5.548;2023-05-17T07:41:07;3.97;;;1.40;;
24743;SDS011;12844;52.110;5.548;2023-05-17T07:43:36;4.03;;;1.40;;
24743;SDS011;12844;52.110;5.548;2023-05-17T07:46:02;3.85;;;1.60;;
24743;SDS011;12844;52.110;5.548;2023-05-17T07:48:27;4.35;;;1.30;;
24743;SDS011;12844;52.110;5.548;2023-05-17T07:50:53;4.22;;;1.40;;
24743;SDS011;12844;52.110;5.548;2023-05-17T07:53:19;3.95;;;1.48;;
24743;SDS011;12844;52.110;5.548;2023-05-17T07:55:44;4.10;;;1.75;;
24743;SDS011;12844;52.110;5.548;2023-05-17T07:58:10;6.18;;;1.92;;
24743;SDS011;12844;52.110;5.548;2023-05-17T08:00:36;3.60;;;1.17;;
24743;SDS011;12844;52.110;5.548;2023-05-17T08:03:02;8.65;;;1.48;;
24743;SDS011;12844;52.110;5.548;2023-05-17T08:05:29;6.13;;;1.80;;
24743;SDS011;12844;52.110;5.548;2023-05-17T08:07:54;4.70;;;1.65;;
24743;SDS011;12844;52.110;5.548;2023-05-17T08:10:24;5.13;;;1.40;;
24743;SDS011;12844;52.110;5.548;2023-05-17T08:12:49;6.78;;;1.38;;
24743;SDS011;12844;52.110;5.548;2023-05-17T08:15:15;5.30;;;1.65;;
24743;SDS011;12844;52.110;5.548;2023-05-17T08:17:40;4.60;;;1.58;;
24743;SDS011;12844;52.110;5.548;2023-05-17T08:20:06;4.25;;;1.33;;
24743;SDS011;12844;52.110;5.548;2023-05-17T08:22:32;4.85;;;1.17;;
24743;SDS011;12844;52.110;5.548;2023-05-17T08:24:58;2.78;;;1.40;;
24743;SDS011;12844;52.110;5.548;2023-05-17T08:27:23;4.03;;;1.40;;
24743;SDS011;12844;52.110;5.548;2023-05-17T08:29:50;4.95;;;1.50;;
24743;SDS011;12844;52.110;5.548;2023-05-17T08:32:18;8.60;;;1.65;;
24743;SDS011;12844;52.110;5.548;2023-05-17T08:34:44;4.15;;;1.48;;
24743;SDS011;12844;52.110;5.548;2023-05-17T08:37:09;6.80;;;1.50;;
24743;SDS011;12844;52.110;5.548;2023-05-17T08:39:36;6.72;;;1.20;;
24743;SDS011;12844;52.110;5.548;2023-05-17T08:42:01;3.10;;;1.25;;
24743;SDS011;12844;52.110;5.548;2023-05-17T08:44:31;5.78;;;1.55;;
24743;SDS011;12844;52.110;5.548;2023-05-17T08:46:56;3.83;;;1.50;;
24743;SDS011;12844;52.110;5.548;2023-05-17T08:49:24;5.88;;;1.45;;
24743;SDS011;12844;52.110;5.548;2023-05-17T08:51:52;6.00;;;1.30;;
24743;SDS011;12844;52.110;5.548;2023-05-17T08:54:19;3.92;;;1.42;;
24743;SDS011;12844;52.110;5.548;2023-05-17T08:56:45;5.18;;;1.30;;
24743;SDS011;12844;52.110;5.548;2023-05-17T08:59:16;4.00;;;1.20;;
24743;SDS011;12844;52.110;5.548;2023-05-17T09:01:43;3.72;;;1.23;;
24743;SDS011;12844;52.110;5.548;2023-05-17T09:04:12;4.82;;;1.10;;
24743;SDS011;12844;52.110;5.548;2023-05-17T09:06:38;3.95;;;1.35;;
24743;SDS011;12844;52.110;5.548;2023-05-17T09:09:04;2.35;;;1.20;;
24743;SDS011;12844;52.110;5.548;2023-05-17T09:11:32;4.65;;;1.40;;
24743;SDS011;12844;52.110;5.548;2023-05-17T09:24:26;3.95;;;1.23;;
24743;SDS011;12844;52.110;5.548;2023-05-17T09:26:54;2.83;;;1.20;;
24743;SDS011;12844;52.110;5.548;2023-05-17T09:29:28;3.70;;;1.40;;
24743;SDS011;12844;52.110;5.548;2023-05-17T09:31:55;2.92;;;1.35;;
24743;SDS011;12844;52.110;5.548;2023-05-17T09:34:22;3.70;;;1.30;;
24743;SDS011;12844;52.110;5.548;2023-05-17T09:36:48;2.80;;;1.20;;
24743;SDS011;12844;52.110;5.548;2023-05-17T09:39:15;3.03;;;1.38;;
24743;SDS011;12844;52.110;5.548;2023-05-17T09:41:41;3.03;;;1.00;;
24743;SDS011;12844;52.110;5.548;2023-05-17T09:44:09;4.50;;;1.50;;
24743;SDS011;12844;52.110;5.548;2023-05-17T09:46:36;2.90;;;1.05;;
24743;SDS011;12844;52.110;5.548;2023-05-17T09:49:13;2.45;;;1.20;;
24743;SDS011;12844;52.110;5.548;2023-05-17T09:51:43;4.72;;;1.23;;
24743;SDS011;12844;52.110;5.548;2023-05-17T09:54:09;3.25;;;1.48;;
24743;SDS011;12844;52.110;5.548;2023-05-17T09:56:36;6.45;;;1.40;;
24743;SDS011;12844;52.110;5.548;2023-05-17T09:59:02;2.00;;;1.20;;
24743;SDS011;12844;52.110;5.548;2023-05-17T10:01:29;1.77;;;1.05;;
24743;SDS011;12844;52.110;5.548;2023-05-17T10:03:59;3.58;;;1.27;;
24743;SDS011;12844;52.110;5.548;2023-05-17T10:06:26;3.90;;;1.35;;
24743;SDS011;12844;52.110;5.548;2023-05-17T10:08:55;2.90;;;1.17;;
24743;SDS011;12844;52.110;5.548;2023-05-17T10:11:26;4.18;;;1.20;;
24743;SDS011;12844;52.110;5.548;2023-05-17T10:14:03;4.32;;;1.20;;
24743;SDS011;12844;52.110;5.548;2023-05-17T10:16:43;3.00;;;1.42;;
24743;SDS011;12844;52.110;5.548;2023-05-17T10:19:12;2.35;;;1.13;;
24743;SDS011;12844;52.110;5.548;2023-05-17T10:21:38;3.20;;;1.02;;
24743;SDS011;12844;52.110;5.548;2023-05-17T10:24:06;2.22;;;1.10;;
24743;SDS011;12844;52.110;5.548;2023-05-17T10:26:32;2.47;;;1.30;;
24743;SDS011;12844;52.110;5.548;2023-05-17T10:28:58;2.22;;;1.25;;
24743;SDS011;12844;52.110;5.548;2023-05-17T10:31:26;1.95;;;1.00;;
24743;SDS011;12844;52.110;5.548;2023-05-17T10:33:54;2.03;;;1.10;;
24743;SDS011;12844;52.110;5.548;2023-05-17T10:36:19;2.38;;;0.90;;
24743;SDS011;12844;52.110;5.548;2023-05-17T10:38:47;2.03;;;1.02;;
24743;SDS011;12844;52.110;5.548;2023-05-17T10:41:13;2.15;;;0.98;;
24743;SDS011;12844;52.110;5.548;2023-05-17T10:43:40;2.47;;;0.95;;
24743;SDS011;12844;52.110;5.548;2023-05-17T10:46:17;1.88;;;0.90;;
24743;SDS011;12844;52.110;5.548;2023-05-17T10:48:46;2.92;;;1.10;;
24743;SDS011;12844;52.110;5.548;2023-05-17T10:51:20;2.38;;;1.05;;
24743;SDS011;12844;52.110;5.548;2023-05-17T10:54:08;2.63;;;1.20;;
24743;SDS011;12844;52.110;5.548;2023-05-17T10:56:38;2.85;;;1.00;;
24743;SDS011;12844;52.110;5.548;2023-05-17T10:59:38;3.60;;;1.02;;
24743;SDS011;12844;52.110;5.548;2023-05-17T11:01:59;2.75;;;1.02;;
24743;SDS011;12844;52.110;5.548;2023-05-17T11:04:41;4.28;;;1.25;;
24743;SDS011;12844;52.110;5.548;2023-05-17T11:09:48;2.38;;;0.90;;
24743;SDS011;12844;52.110;5.548;2023-05-17T11:13:05;1.83;;;1.02;;
24743;SDS011;12844;52.110;5.548;2023-05-17T11:15:44;2.88;;;1.10;;
24743;SDS011;12844;52.110;5.548;2023-05-17T11:18:44;2.08;;;1.13;;
24743;SDS011;12844;52.110;5.548;2023-05-17T11:21:11;1.98;;;0.98;;
24743;SDS011;12844;52.110;5.548;2023-05-17T11:23:38;2.45;;;1.10;;
24743;SDS011;12844;52.110;5.548;2023-05-17T11:26:15;1.95;;;1.10;;
24743;SDS011;12844;52.110;5.548;2023-05-17T11:28:45;3.45;;;1.00;;
24743;SDS011;12844;52.110;5.548;2023-05-17T11:31:11;2.53;;;1.08;;
24743;SDS011;12844;52.110;5.548;2023-05-17T11:33:43;3.60;;;1.00;;
24743;SDS011;12844;52.110;5.548;2023-05-17T11:38:39;1.35;;;0.93;;
24743;SDS011;12844;52.110;5.548;2023-05-17T11:41:18;2.00;;;0.82;;
24743;SDS011;12844;52.110;5.548;2023-05-17T11:43:47;2.10;;;1.10;;
24743;SDS011;12844;52.110;5.548;2023-05-17T11:46:20;2.78;;;1.27;;
24743;SDS011;12844;52.110;5.548;2023-05-17T11:48:49;2.05;;;1.00;;
24743;SDS011;12844;52.110;5.548;2023-05-17T11:51:15;2.30;;;0.82;;
24743;SDS011;12844;52.110;5.548;2023-05-17T11:53:42;3.38;;;1.23;;
24743;SDS011;12844;52.110;5.548;2023-05-17T11:56:08;3.00;;;1.20;;
24743;SDS011;12844;52.110;5.548;2023-05-17T11:58:35;1.65;;;1.10;;
24743;SDS011;12844;52.110;5.548;2023-05-17T12:01:01;2.33;;;0.88;;
24743;SDS011;12844;52.110;5.548;2023-05-17T12:03:28;2.47;;;1.10;;
24743;SDS011;12844;52.110;5.548;2023-05-17T12:08:27;2.63;;;1.08;;
24743;SDS011;12844;52.110;5.548;2023-05-17T12:10:54;1.98;;;1.13;;
24743;SDS011;12844;52.110;5.548;2023-05-17T12:13:23;3.40;;;1.30;;
24743;SDS011;12844;52.110;5.548;2023-05-17T12:15:58;3.22;;;1.20;;
24743;SDS011;12844;52.110;5.548;2023-05-17T12:18:36;2.50;;;1.00;;
24743;SDS011;12844;52.110;5.548;2023-05-17T12:21:02;2.22;;;0.90;;
24743;SDS011;12844;52.110;5.548;2023-05-17T12:23:28;2.08;;;0.85;;
24743;SDS011;12844;52.110;5.548;2023-05-17T12:26:08;2.22;;;0.95;;
24743;SDS011;12844;52.110;5.548;2023-05-17T12:28:41;1.92;;;1.02;;
24743;SDS011;12844;52.110;5.548;2023-05-17T12:31:17;1.85;;;1.00;;
24743;SDS011;12844;52.110;5.548;2023-05-17T12:33:46;2.88;;;1.20;;
24743;SDS011;12844;52.110;5.548;2023-05-17T12:36:14;2.00;;;0.80;;
24743;SDS011;12844;52.110;5.548;2023-05-17T12:38:41;2.13;;;0.90;;
24743;SDS011;12844;52.110;5.548;2023-05-17T12:41:09;3.38;;;1.20;;
24743;SDS011;12844;52.110;5.548;2023-05-17T12:43:36;2.03;;;1.00;;
24743;SDS011;12844;52.110;5.548;2023-05-17T12:46:06;2.10;;;0.90;;
24743;SDS011;12844;52.110;5.548;2023-05-17T12:48:34;2.10;;;1.00;;
24743;SDS011;12844;52.110;5.548;2023-05-17T12:51:10;2.30;;;1.10;;
24743;SDS011;12844;52.110;5.548;2023-05-17T12:53:50;3.63;;;1.10;;
24743;SDS011;12844;52.110;5.548;2023-05-17T12:56:20;2.15;;;1.02;;
24743;SDS011;12844;52.110;5.548;2023-05-17T13:01:34;1.48;;;0.85;;
24743;SDS011;12844;52.110;5.548;2023-05-17T13:04:01;3.15;;;1.15;;
24743;SDS011;12844;52.110;5.548;2023-05-17T13:06:27;1.30;;;0.80;;
24743;SDS011;12844;52.110;5.548;2023-05-17T13:08:59;1.98;;;1.00;;
24743;SDS011;12844;52.110;5.548;2023-05-17T13:11:25;1.88;;;0.90;;
24743;SDS011;12844;52.110;5.548;2023-05-17T13:13:51;1.05;;;0.85;;
24743;SDS011;12844;52.110;5.548;2023-05-17T13:16:17;1.52;;;0.77;;
24743;SDS011;12844;52.110;5.548;2023-05-17T13:18:52;2.17;;;0.88;;
24743;SDS011;12844;52.110;5.548;2023-05-17T13:21:19;1.98;;;0.90;;
24743;SDS011;12844;52.110;5.548;2023-05-17T13:23:46;2.67;;;0.90;;
24743;SDS011;12844;52.110;5.548;2023-05-17T13:26:12;2.17;;;0.90;;
24743;SDS011;12844;52.110;5.548;2023-05-17T13:28:39;2.55;;;0.80;;
24743;SDS011;12844;52.110;5.548;2023-05-17T13:31:05;1.67;;;0.90;;
24743;SDS011;12844;52.110;5.548;2023-05-17T13:33:31;2.33;;;1.00;;
24743;SDS011;12844;52.110;5.548;2023-05-17T13:35:56;2.70;;;1.02;;
24743;SDS011;12844;52.110;5.548;2023-05-17T13:38:22;1.42;;;0.90;;
24743;SDS011;12844;52.110;5.548;2023-05-17T13:40:47;1.33;;;0.85;;
24743;SDS011;12844;52.110;5.548;2023-05-17T13:43:13;2.05;;;0.95;;
24743;SDS011;12844;52.110;5.548;2023-05-17T13:45:39;1.88;;;0.98;;
24743;SDS011;12844;52.110;5.548;2023-05-17T13:48:04;1.98;;;0.90;;
24743;SDS011;12844;52.110;5.548;2023-05-17T13:50:30;1.35;;;0.90;;
24743;SDS011;12844;52.110;5.548;2023-05-17T13:52:56;1.80;;;0.90;;
24743;SDS011;12844;52.110;5.548;2023-05-17T13:55:22;1.83;;;0.90;;
24743;SDS011;12844;52.110;5.548;2023-05-17T13:57:47;0.93;;;0.82;;
24743;SDS011;12844;52.110;5.548;2023-05-17T14:00:13;1.20;;;0.80;;
24743;SDS011;12844;52.110;5.548;2023-05-17T14:02:40;2.40;;;1.10;;
24743;SDS011;12844;52.110;5.548;2023-05-17T14:05:05;2.72;;;1.15;;
24743;SDS011;12844;52.110;5.548;2023-05-17T14:07:33;2.25;;;1.00;;
24743;SDS011;12844;52.110;5.548;2023-05-17T14:09:59;2.20;;;1.00;;
24743;SDS011;12844;52.110;5.548;2023-05-17T14:12:25;1.95;;;0.90;;
24743;SDS011;12844;52.110;5.548;2023-05-17T14:14:50;2.03;;;1.10;;
24743;SDS011;12844;52.110;5.548;2023-05-17T14:17:16;2.35;;;1.13;;
24743;SDS011;12844;52.110;5.548;2023-05-17T14:19:41;2.55;;;1.00;;
24743;SDS011;12844;52.110;5.548;2023-05-17T14:22:07;1.85;;;1.10;;
24743;SDS011;12844;52.110;5.548;2023-05-17T14:24:32;2.50;;;1.30;;
24743;SDS011;12844;52.110;5.548;2023-05-17T14:26:58;1.60;;;0.90;;
24743;SDS011;12844;52.110;5.548;2023-05-17T14:29:24;1.88;;;0.90;;
24743;SDS011;12844;52.110;5.548;2023-05-17T14:31:49;3.58;;;1.20;;
24743;SDS011;12844;52.110;5.548;2023-05-17T14:34:15;1.55;;;0.95;;
24743;SDS011;12844;52.110;5.548;2023-05-17T14:36:41;2.03;;;0.88;;
24743;SDS011;12844;52.110;5.548;2023-05-17T14:39:06;2.03;;;0.93;;
24743;SDS011;12844;52.110;5.548;2023-05-17T14:41:32;2.53;;;1.20;;
24743;SDS011;12844;52.110;5.548;2023-05-17T14:43:59;2.75;;;1.00;;
24743;SDS011;12844;52.110;5.548;2023-05-17T14:46:27;3.25;;;0.95;;
24743;SDS011;12844;52.110;5.548;2023-05-17T14:48:53;5.25;;;1.20;;
24743;SDS011;12844;52.110;5.548;2023-05-17T14:51:20;2.55;;;0.90;;
24743;SDS011;12844;52.110;5.548;2023-05-17T14:53:46;1.98;;;1.10;;
24743;SDS011;12844;52.110;5.548;2023-05-17T14:56:11;2.22;;;0.90;;
24743;SDS011;12844;52.110;5.548;2023-05-17T14:58:39;1.80;;;0.98;;
24743;SDS011;12844;52.110;5.548;2023-05-17T15:01:04;3.22;;;1.30;;
24743;SDS011;12844;52.110;5.548;2023-05-17T15:03:30;2.05;;;1.30;;
24743;SDS011;12844;52.110;5.548;2023-05-17T15:05:56;2.08;;;0.95;;
24743;SDS011;12844;52.110;5.548;2023-05-17T15:08:22;2.40;;;1.10;;
24743;SDS011;12844;52.110;5.548;2023-05-17T15:10:48;3.50;;;1.10;;
24743;SDS011;12844;52.110;5.548;2023-05-17T15:13:15;2.58;;;1.20;;
24743;SDS011;12844;52.110;5.548;2023-05-17T15:15:41;3.83;;;1.48;;
24743;SDS011;12844;52.110;5.548;2023-05-17T15:18:07;2.95;;;1.17;;